Zim Vancouver — A8LK5 — position and weather

sailwx.info

Track history (hours):
 
Tides and Currents Weather Stations Pressure Air Temp Water Temp Dewpoint Dewpoint Depression Visibility Wind Speed Wind Dir Waves Ship Positions

Zim Vancouver

Last reported at 2017-Jul-20 12:00 UTC. Time now 2017-Jul-22 04:39 UTC.
Position N 13°12' E 056°48'.

Length 260 m; draft 12.9 m.

Type: Ship. MMSI: 636013214.

Wind from 340 at 35 knots

Barometer 1003.5 mb
Air temperature 29.0 ° C
Visibility: greater than 5.4 NM
Dewpoint 22.0 ° C

Date/timePositionNaut miles runAvg speedWind from/ knotsBaromVisibWave heightAir tempDewpointWater temp
2017-Jul-20 12:00N 13°12' E 056°48'33413.9 340 / 351003.5 5.4 29.022.0
2017-Jul-19 12:00N 13°42' E 051°06'8514.2 230 / 211002.0 5.4 40.031.2
2017-Jul-19 06:00N 13°18' E 049°42'36715.3 250 / 171005.0 5.4 32.026.7
2017-Jul-18 06:00N 12°24' E 043°30'17214.3 300 / 101007.0 5.4 34.026.1
2017-Jul-17 18:00N 14°48' E 041°54'26914.9 310 / 161004.010.8 34.026.1
2017-Jul-17 00:00N 18°42' E 039°36'   320 / 31002.010.8 30.024.6
2017-Jul-14 10:01N 30°25' E 032°21'0 8.9
2017-Jul-14 09:58N 30°26' E 032°21'20 8.0
2017-Jul-14 07:29N 30°46' E 032°19'6 8.8
2017-Jul-14 06:49N 30°51' E 032°19'3 7.8
2017-Jul-14 06:30N 30°54' E 032°19'4 7.9
2017-Jul-14 06:00N 30°58' E 032°19'4 8.3
2017-Jul-14 05:30N 31°02' E 032°19'4 8.2
2017-Jul-14 05:00N 31°06' E 032°18'4 8.7
2017-Jul-14 04:30N 31°10' E 032°20'4 7.0
2017-Jul-14 04:00N 31°14' E 032°21'4 8.7
2017-Jul-14 03:30N 31°18' E 032°22'5 9.8
2017-Jul-14 03:00N 31°23' E 032°23'4 7.0
2017-Jul-14 02:30N 31°26' E 032°22'3 0.8
2017-Jul-13 22:43N 31°24' E 032°20'0 0.0
2017-Jul-13 22:28N 31°24' E 032°20'0 0.0
2017-Jul-13 21:58N 31°24' E 032°20'0 0.0
2017-Jul-13 20:37N 31°24' E 032°20'0 0.1
2017-Jul-13 20:28N 31°24' E 032°20'0 0.0
2017-Jul-13 17:46N 31°23' E 032°20'0 0.0
2017-Jul-13 17:28N 31°23' E 032°20'0 0.1
2017-Jul-13 15:50N 31°24' E 032°19'3 5.8
2017-Jul-13 15:15N 31°27' E 032°20'311.8
2017-Jul-13 14:58N 31°30' E 032°20'714.4
2017-Jul-13 14:30N 31°36' E 032°23'816.0
2017-Jul-13 14:01N 31°40' E 032°31'713.8
2017-Jul-13 13:31N 31°44' E 032°38'1013.3
2017-Jul-13 12:47N 31°50' E 032°47'713.4
2017-Jul-13 12:16N 31°54' E 032°53'913.4
2017-Jul-13 11:35N 32°00' E 033°02'313.3
2017-Jul-13 11:22N 32°02' E 033°05'813.2
2017-Jul-13 10:47N 32°06' E 033°12'413.2
2017-Jul-13 10:31N 32°09' E 033°15'713.2
2017-Jul-13 10:01N 32°13' E 033°21'713.0
2017-Jul-13 09:29N 32°17' E 033°28'713.0
2017-Jul-13 08:56N 32°21' E 033°34'2313.0
2017-Jul-13 07:13N 32°35' E 033°55'313.1
2017-Jul-13 06:58N 32°37' E 033°59'613.2
2017-Jul-13 06:30N 32°40' E 034°05'713.1
2017-Jul-13 05:58N 32°44' E 034°12'613.0
2017-Jul-13 05:29N 32°47' E 034°18'713.2
2017-Jul-13 04:58N 32°50' E 034°25'813.1
2017-Jul-13 04:24N 32°54' E 034°33'612.8
2017-Jul-13 03:57N 32°55' E 034°39'613.2
2017-Jul-13 03:31N 32°55' E 034°46'713.4
2017-Jul-13 03:00N 32°53' E 034°54'612.7
2017-Jul-13 02:31N 32°51' E 035°01'2 3.2
2017-Jul-13 01:59N 32°49' E 035°01'0 0.0
2017-Jul-13 01:29N 32°49' E 035°01'0 0.0
2017-Jul-13 00:59N 32°49' E 035°01'0 0.0
2017-Jul-13 00:29N 32°49' E 035°01'0 0.0
2017-Jul-12 23:59N 32°49' E 035°01'0 0.0
2017-Jul-12 23:29N 32°49' E 035°01'0 0.0
2017-Jul-12 22:59N 32°49' E 035°01'0 0.0
2017-Jul-12 22:29N 32°49' E 035°01'0 0.0
2017-Jul-12 21:59N 32°49' E 035°01'0 0.0
2017-Jul-12 21:29N 32°49' E 035°01'0 0.0
2017-Jul-12 20:59N 32°49' E 035°01'0 0.0
2017-Jul-12 20:29N 32°49' E 035°01'0 0.0
2017-Jul-12 19:59N 32°49' E 035°01'0 0.0
2017-Jul-12 19:29N 32°49' E 035°01'0 0.0
2017-Jul-12 18:59N 32°49' E 035°01'0 0.0
2017-Jul-12 18:29N 32°49' E 035°01'0 0.0
2017-Jul-12 17:59N 32°49' E 035°01'0 0.0
2017-Jul-12 17:29N 32°49' E 035°01'0 0.0
2017-Jul-12 16:59N 32°49' E 035°01'0 0.0
2017-Jul-12 16:29N 32°49' E 035°01'0 0.0
2017-Jul-12 15:59N 32°49' E 035°01'0 0.0
2017-Jul-12 15:29N 32°49' E 035°01'0 0.0
2017-Jul-12 14:59N 32°49' E 035°01'0 0.0
2017-Jul-12 13:59N 32°49' E 035°01'0 0.0
2017-Jul-12 13:29N 32°49' E 035°01'0 0.0
2017-Jul-12 12:59N 32°49' E 035°01'0 0.0
2017-Jul-12 12:29N 32°49' E 035°01'0 0.0
2017-Jul-12 11:59N 32°49' E 035°01'0 0.0
2017-Jul-12 11:29N 32°49' E 035°01'0 0.0
2017-Jul-12 10:59N 32°49' E 035°01'0 0.0
2017-Jul-12 10:29N 32°49' E 035°01'0 0.0
2017-Jul-12 09:59N 32°49' E 035°01'0 0.0
2017-Jul-12 09:29N 32°49' E 035°01'0 0.0
2017-Jul-12 08:59N 32°49' E 035°01'0 0.0
2017-Jul-12 08:29N 32°49' E 035°01'0 0.0
2017-Jul-12 07:59N 32°49' E 035°01'0 0.0
2017-Jul-12 07:26N 32°49' E 035°01'0 0.0
2017-Jul-12 06:59N 32°49' E 035°01'0 0.0
2017-Jul-12 06:29N 32°49' E 035°01'0 0.0
2017-Jul-12 05:59N 32°49' E 035°01'0 0.0
2017-Jul-12 05:29N 32°49' E 035°01'0 0.0
2017-Jul-12 04:59N 32°49' E 035°01'0 0.0
2017-Jul-12 04:29N 32°49' E 035°01'0 0.0
2017-Jul-12 03:59N 32°49' E 035°01'0 0.3
2017-Jul-12 03:30N 32°49' E 035°01'2 3.6
2017-Jul-12 03:00N 32°51' E 035°00'4 7.7
2017-Jul-12 02:30N 32°53' E 034°56'914.0
2017-Jul-12 01:51N 32°55' E 034°46'514.1
2017-Jul-12 01:30N 32°56' E 034°40'714.0
2017-Jul-12 01:00N 32°57' E 034°32'813.8
2017-Jul-12 00:26N 33°00' E 034°23'613.8
2017-Jul-12 00:00N 33°03' E 034°17'713.7
2017-Jul-11 23:30N 33°06' E 034°10'713.5
2017-Jul-11 23:00N 33°09' E 034°02'713.7
2017-Jul-11 22:30N 33°12' E 033°55'1613.7
2017-Jul-11 21:19N 33°20' E 033°38'413.6
2017-Jul-11 21:00N 33°21' E 033°33'713.7
2017-Jul-11 20:30N 33°25' E 033°26'713.8
2017-Jul-11 20:00N 33°28' E 033°18'714.0
2017-Jul-11 19:30N 33°31' E 033°11'714.2
2017-Jul-11 19:00N 33°34' E 033°03'714.5
2017-Jul-11 18:30N 33°37' E 032°56'714.5
2017-Jul-11 18:00N 33°41' E 032°48'714.4
2017-Jul-11 17:30N 33°44' E 032°40'714.3
2017-Jul-11 17:00N 33°47' E 032°32'714.3
2017-Jul-11 16:30N 33°50' E 032°25'714.1
2017-Jul-11 16:00N 33°54' E 032°17'714.1
2017-Jul-11 15:30N 33°57' E 032°09'714.2
2017-Jul-11 15:00N 33°60' E 032°02'714.3
2017-Jul-11 14:30N 34°03' E 031°54'714.3
2017-Jul-11 14:00N 34°06' E 031°47'714.2
2017-Jul-11 13:30N 34°09' E 031°39'714.1
2017-Jul-11 13:00N 34°13' E 031°31'714.0
2017-Jul-11 12:30N 34°16' E 031°24'714.0
2017-Jul-11 12:00N 34°19' E 031°16'714.3
2017-Jul-11 11:30N 34°22' E 031°08'714.3
2017-Jul-11 11:00N 34°25' E 031°01'714.2
2017-Jul-11 10:30N 34°29' E 030°53'714.4
2017-Jul-11 10:00N 34°32' E 030°45'714.4
2017-Jul-11 09:30N 34°35' E 030°37'714.6
2017-Jul-11 09:00N 34°38' E 030°29'714.4
2017-Jul-11 08:30N 34°42' E 030°22'2415.0
2017-Jul-11 06:55N 34°52' E 029°56'614.9
2017-Jul-11 06:30N 34°55' E 029°49'815.4
2017-Jul-11 06:00N 34°58' E 029°41'23316.3
2017-Jul-10 15:45N 37°23' E 025°55'416.5
2017-Jul-10 15:31N 37°27' E 025°53'816.2
2017-Jul-10 15:00N 37°34' E 025°50'816.6
2017-Jul-10 14:30N 37°43' E 025°48'  
Track history (hours):
 
Tides and Currents Weather Stations Pressure Air Temp Water Temp Dewpoint Dewpoint Depression Visibility Wind Speed Wind Dir Waves Ship Positions

Zim Vancouver

Last reported at 2017-Jul-20 12:00 UTC. Time now 2017-Jul-22 04:39 UTC.
Position N 13°12' E 056°48'.

Length 260 m; draft 12.9 m.

Type: Ship. MMSI: 636013214.

Wind from 340 at 35 knots

Barometer 1003.5 mb
Air temperature 29.0 ° C
Visibility: greater than 5.4 NM
Dewpoint 22.0 ° C

Date/timePositionNaut miles runAvg speedWind from/ knotsBaromVisibWave heightAir tempDewpointWater temp
2017-Jul-20 12:00N 13°12' E 056°48'33413.9 340 / 351003.5 5.4 29.022.0
2017-Jul-19 12:00N 13°42' E 051°06'8514.2 230 / 211002.0 5.4 40.031.2
2017-Jul-19 06:00N 13°18' E 049°42'36715.3 250 / 171005.0 5.4 32.026.7
2017-Jul-18 06:00N 12°24' E 043°30'17214.3 300 / 101007.0 5.4 34.026.1
2017-Jul-17 18:00N 14°48' E 041°54'26914.9 310 / 161004.010.8 34.026.1
2017-Jul-17 00:00N 18°42' E 039°36'   320 / 31002.010.8 30.024.6
2017-Jul-14 10:01N 30°25' E 032°21'0 8.9
2017-Jul-14 09:58N 30°26' E 032°21'20 8.0
2017-Jul-14 07:29N 30°46' E 032°19'6 8.8
2017-Jul-14 06:49N 30°51' E 032°19'3 7.8
2017-Jul-14 06:30N 30°54' E 032°19'4 7.9
2017-Jul-14 06:00N 30°58' E 032°19'4 8.3
2017-Jul-14 05:30N 31°02' E 032°19'4 8.2
2017-Jul-14 05:00N 31°06' E 032°18'4 8.7
2017-Jul-14 04:30N 31°10' E 032°20'4 7.0
2017-Jul-14 04:00N 31°14' E 032°21'4 8.7
2017-Jul-14 03:30N 31°18' E 032°22'5 9.8
2017-Jul-14 03:00N 31°23' E 032°23'4 7.0
2017-Jul-14 02:30N 31°26' E 032°22'3 0.8
2017-Jul-13 22:43N 31°24' E 032°20'0 0.0
2017-Jul-13 22:28N 31°24' E 032°20'0 0.0
2017-Jul-13 21:58N 31°24' E 032°20'0 0.0
2017-Jul-13 20:37N 31°24' E 032°20'0 0.1
2017-Jul-13 20:28N 31°24' E 032°20'0 0.0
2017-Jul-13 17:46N 31°23' E 032°20'0 0.0
2017-Jul-13 17:28N 31°23' E 032°20'0 0.1
2017-Jul-13 15:50N 31°24' E 032°19'3 5.8
2017-Jul-13 15:15N 31°27' E 032°20'311.8
2017-Jul-13 14:58N 31°30' E 032°20'714.4
2017-Jul-13 14:30N 31°36' E 032°23'816.0
2017-Jul-13 14:01N 31°40' E 032°31'713.8
2017-Jul-13 13:31N 31°44' E 032°38'1013.3
2017-Jul-13 12:47N 31°50' E 032°47'713.4
2017-Jul-13 12:16N 31°54' E 032°53'913.4
2017-Jul-13 11:35N 32°00' E 033°02'313.3
2017-Jul-13 11:22N 32°02' E 033°05'813.2
2017-Jul-13 10:47N 32°06' E 033°12'413.2
2017-Jul-13 10:31N 32°09' E 033°15'713.2
2017-Jul-13 10:01N 32°13' E 033°21'713.0
2017-Jul-13 09:29N 32°17' E 033°28'713.0
2017-Jul-13 08:56N 32°21' E 033°34'2313.0
2017-Jul-13 07:13N 32°35' E 033°55'313.1
2017-Jul-13 06:58N 32°37' E 033°59'613.2
2017-Jul-13 06:30N 32°40' E 034°05'713.1
2017-Jul-13 05:58N 32°44' E 034°12'613.0
2017-Jul-13 05:29N 32°47' E 034°18'713.2
2017-Jul-13 04:58N 32°50' E 034°25'813.1
2017-Jul-13 04:24N 32°54' E 034°33'612.8
2017-Jul-13 03:57N 32°55' E 034°39'613.2
2017-Jul-13 03:31N 32°55' E 034°46'713.4
2017-Jul-13 03:00N 32°53' E 034°54'612.7
2017-Jul-13 02:31N 32°51' E 035°01'2 3.2
2017-Jul-13 01:59N 32°49' E 035°01'0 0.0
2017-Jul-13 01:29N 32°49' E 035°01'0 0.0
2017-Jul-13 00:59N 32°49' E 035°01'0 0.0
2017-Jul-13 00:29N 32°49' E 035°01'0 0.0
2017-Jul-12 23:59N 32°49' E 035°01'0 0.0
2017-Jul-12 23:29N 32°49' E 035°01'0 0.0
2017-Jul-12 22:59N 32°49' E 035°01'0 0.0
2017-Jul-12 22:29N 32°49' E 035°01'0 0.0
2017-Jul-12 21:59N 32°49' E 035°01'0 0.0
2017-Jul-12 21:29N 32°49' E 035°01'0 0.0
2017-Jul-12 20:59N 32°49' E 035°01'0 0.0
2017-Jul-12 20:29N 32°49' E 035°01'0 0.0
2017-Jul-12 19:59N 32°49' E 035°01'0 0.0
2017-Jul-12 19:29N 32°49' E 035°01'0 0.0
2017-Jul-12 18:59N 32°49' E 035°01'0 0.0
2017-Jul-12 18:29N 32°49' E 035°01'0 0.0
2017-Jul-12 17:59N 32°49' E 035°01'0 0.0
2017-Jul-12 17:29N 32°49' E 035°01'0 0.0
2017-Jul-12 16:59N 32°49' E 035°01'0 0.0
2017-Jul-12 16:29N 32°49' E 035°01'0 0.0
2017-Jul-12 15:59N 32°49' E 035°01'0 0.0
2017-Jul-12 15:29N 32°49' E 035°01'0 0.0
2017-Jul-12 14:59N 32°49' E 035°01'0 0.0
2017-Jul-12 13:59N 32°49' E 035°01'0 0.0
2017-Jul-12 13:29N 32°49' E 035°01'0 0.0
2017-Jul-12 12:59N 32°49' E 035°01'0 0.0
2017-Jul-12 12:29N 32°49' E 035°01'0 0.0
2017-Jul-12 11:59N 32°49' E 035°01'0 0.0
2017-Jul-12 11:29N 32°49' E 035°01'0 0.0
2017-Jul-12 10:59N 32°49' E 035°01'0 0.0
2017-Jul-12 10:29N 32°49' E 035°01'0 0.0
2017-Jul-12 09:59N 32°49' E 035°01'0 0.0
2017-Jul-12 09:29N 32°49' E 035°01'0 0.0
2017-Jul-12 08:59N 32°49' E 035°01'0 0.0
2017-Jul-12 08:29N 32°49' E 035°01'0 0.0
2017-Jul-12 07:59N 32°49' E 035°01'0 0.0
2017-Jul-12 07:26N 32°49' E 035°01'0 0.0
2017-Jul-12 06:59N 32°49' E 035°01'0 0.0
2017-Jul-12 06:29N 32°49' E 035°01'0 0.0
2017-Jul-12 05:59N 32°49' E 035°01'0 0.0
2017-Jul-12 05:29N 32°49' E 035°01'0 0.0
2017-Jul-12 04:59N 32°49' E 035°01'0 0.0
2017-Jul-12 04:29N 32°49' E 035°01'0 0.0
2017-Jul-12 03:59N 32°49' E 035°01'0 0.3
2017-Jul-12 03:30N 32°49' E 035°01'2 3.6
2017-Jul-12 03:00N 32°51' E 035°00'4 7.7
2017-Jul-12 02:30N 32°53' E 034°56'914.0
2017-Jul-12 01:51N 32°55' E 034°46'514.1
2017-Jul-12 01:30N 32°56' E 034°40'714.0
2017-Jul-12 01:00N 32°57' E 034°32'813.8
2017-Jul-12 00:26N 33°00' E 034°23'613.8
2017-Jul-12 00:00N 33°03' E 034°17'713.7
2017-Jul-11 23:30N 33°06' E 034°10'713.5
2017-Jul-11 23:00N 33°09' E 034°02'713.7
2017-Jul-11 22:30N 33°12' E 033°55'1613.7
2017-Jul-11 21:19N 33°20' E 033°38'413.6
2017-Jul-11 21:00N 33°21' E 033°33'713.7
2017-Jul-11 20:30N 33°25' E 033°26'713.8
2017-Jul-11 20:00N 33°28' E 033°18'714.0
2017-Jul-11 19:30N 33°31' E 033°11'714.2
2017-Jul-11 19:00N 33°34' E 033°03'714.5
2017-Jul-11 18:30N 33°37' E 032°56'714.5
2017-Jul-11 18:00N 33°41' E 032°48'714.4
2017-Jul-11 17:30N 33°44' E 032°40'714.3
2017-Jul-11 17:00N 33°47' E 032°32'714.3
2017-Jul-11 16:30N 33°50' E 032°25'714.1
2017-Jul-11 16:00N 33°54' E 032°17'714.1
2017-Jul-11 15:30N 33°57' E 032°09'714.2
2017-Jul-11 15:00N 33°60' E 032°02'714.3
2017-Jul-11 14:30N 34°03' E 031°54'714.3
2017-Jul-11 14:00N 34°06' E 031°47'714.2
2017-Jul-11 13:30N 34°09' E 031°39'714.1
2017-Jul-11 13:00N 34°13' E 031°31'714.0
2017-Jul-11 12:30N 34°16' E 031°24'714.0
2017-Jul-11 12:00N 34°19' E 031°16'714.3
2017-Jul-11 11:30N 34°22' E 031°08'714.3
2017-Jul-11 11:00N 34°25' E 031°01'714.2
2017-Jul-11 10:30N 34°29' E 030°53'714.4
2017-Jul-11 10:00N 34°32' E 030°45'714.4
2017-Jul-11 09:30N 34°35' E 030°37'714.6
2017-Jul-11 09:00N 34°38' E 030°29'714.4
2017-Jul-11 08:30N 34°42' E 030°22'2415.0
2017-Jul-11 06:55N 34°52' E 029°56'614.9
2017-Jul-11 06:30N 34°55' E 029°49'815.4
2017-Jul-11 06:00N 34°58' E 029°41'23316.3
2017-Jul-10 15:45N 37°23' E 025°55'416.5
2017-Jul-10 15:31N 37°27' E 025°53'816.2
2017-Jul-10 15:00N 37°34' E 025°50'816.6
2017-Jul-10 14:30N 37°43' E 025°48'  

Dump ship's entire track history